sensor_id;sensor_type;location;lat;lon;timestamp;pressure;altitude;pressure_sealevel;temperature;humidity
10732;BME280;5417;42.686;23.244;2023-03-16T00:00:21;93443.94;;;6.82;68.95
10732;BME280;5417;42.686;23.244;2023-03-16T00:02:48;93456.72;;;6.83;68.87
10732;BME280;5417;42.686;23.244;2023-03-16T00:05:15;93458.13;;;6.87;68.89
10732;BME280;5417;42.686;23.244;2023-03-16T00:07:42;93457.50;;;6.95;68.37
10732;BME280;5417;42.686;23.244;2023-03-16T00:10:10;93459.50;;;6.91;67.53
10732;BME280;5417;42.686;23.244;2023-03-16T00:12:38;93462.22;;;6.90;68.46
10732;BME280;5417;42.686;23.244;2023-03-16T00:15:09;93461.03;;;6.94;68.20
10732;BME280;5417;42.686;23.244;2023-03-16T00:17:36;93463.88;;;6.91;67.86
10732;BME280;5417;42.686;23.244;2023-03-16T00:20:04;93472.31;;;6.93;67.80
10732;BME280;5417;42.686;23.244;2023-03-16T00:22:32;93458.75;;;6.80;68.38
10732;BME280;5417;42.686;23.244;2023-03-16T00:24:59;93468.47;;;6.87;67.88
10732;BME280;5417;42.686;23.244;2023-03-16T00:27:26;93469.97;;;6.90;68.16
10732;BME280;5417;42.686;23.244;2023-03-16T00:29:53;93478.00;;;6.87;68.13
10732;BME280;5417;42.686;23.244;2023-03-16T00:32:24;93477.75;;;6.90;68.43
10732;BME280;5417;42.686;23.244;2023-03-16T00:34:52;93479.50;;;6.89;67.50
10732;BME280;5417;42.686;23.244;2023-03-16T00:37:20;93477.03;;;6.88;67.41
10732;BME280;5417;42.686;23.244;2023-03-16T00:39:48;93476.47;;;6.84;66.93
10732;BME280;5417;42.686;23.244;2023-03-16T00:42:16;93490.22;;;6.85;66.21
10732;BME280;5417;42.686;23.244;2023-03-16T00:44:44;93485.78;;;6.76;66.99
10732;BME280;5417;42.686;23.244;2023-03-16T00:47:11;93493.66;;;6.74;67.41
10732;BME280;5417;42.686;23.244;2023-03-16T00:49:42;93500.59;;;6.74;67.15
10732;BME280;5417;42.686;23.244;2023-03-16T00:52:11;93488.63;;;6.73;67.62
10732;BME280;5417;42.686;23.244;2023-03-16T00:54:40;93491.19;;;6.73;66.42
10732;BME280;5417;42.686;23.244;2023-03-16T00:57:08;93489.91;;;6.78;66.41
10732;BME280;5417;42.686;23.244;2023-03-16T00:59:37;93492.44;;;6.89;66.26
10732;BME280;5417;42.686;23.244;2023-03-16T01:02:05;93488.97;;;6.79;66.59
10732;BME280;5417;42.686;23.244;2023-03-16T01:04:32;93492.06;;;6.62;67.07
10732;BME280;5417;42.686;23.244;2023-03-16T01:07:02;93493.75;;;6.52;67.65
10732;BME280;5417;42.686;23.244;2023-03-16T01:09:29;93494.34;;;6.55;67.35
10732;BME280;5417;42.686;23.244;2023-03-16T01:11:55;93487.84;;;6.61;67.22
10732;BME280;5417;42.686;23.244;2023-03-16T01:14:22;93488.97;;;6.47;67.95
10732;BME280;5417;42.686;23.244;2023-03-16T01:16:49;93489.56;;;6.40;68.25
10732;BME280;5417;42.686;23.244;2023-03-16T01:19:17;93499.09;;;6.39;67.79
10732;BME280;5417;42.686;23.244;2023-03-16T01:21:44;93504.50;;;6.36;68.09
10732;BME280;5417;42.686;23.244;2023-03-16T01:24:12;93501.09;;;6.36;67.96
10732;BME280;5417;42.686;23.244;2023-03-16T01:26:39;93499.81;;;6.30;68.20
10732;BME280;5417;42.686;23.244;2023-03-16T01:29:06;93497.94;;;6.21;67.81
10732;BME280;5417;42.686;23.244;2023-03-16T01:31:33;93502.56;;;5.95;68.42
10732;BME280;5417;42.686;23.244;2023-03-16T01:34:00;93502.91;;;6.01;69.25
10732;BME280;5417;42.686;23.244;2023-03-16T01:36:29;93500.44;;;5.89;69.81
10732;BME280;5417;42.686;23.244;2023-03-16T01:38:56;93507.63;;;5.96;69.38
10732;BME280;5417;42.686;23.244;2023-03-16T01:41:24;93514.09;;;5.91;69.33
10732;BME280;5417;42.686;23.244;2023-03-16T01:43:52;93515.84;;;5.90;68.73
10732;BME280;5417;42.686;23.244;2023-03-16T01:46:24;93520.66;;;5.95;67.63
10732;BME280;5417;42.686;23.244;2023-03-16T01:49:01;93509.84;;;5.90;67.96
10732;BME280;5417;42.686;23.244;2023-03-16T01:51:35;93522.84;;;5.88;68.67
10732;BME280;5417;42.686;23.244;2023-03-16T01:54:06;93513.59;;;5.86;68.35
10732;BME280;5417;42.686;23.244;2023-03-16T01:56:39;93516.66;;;5.91;67.16
10732;BME280;5417;42.686;23.244;2023-03-16T01:59:10;93521.69;;;5.81;68.79
10732;BME280;5417;42.686;23.244;2023-03-16T02:01:39;93518.28;;;5.81;68.64
10732;BME280;5417;42.686;23.244;2023-03-16T02:04:15;93519.00;;;5.83;69.06
10732;BME280;5417;42.686;23.244;2023-03-16T02:06:42;93527.94;;;5.90;68.30
10732;BME280;5417;42.686;23.244;2023-03-16T02:09:10;93526.03;;;5.81;67.73
10732;BME280;5417;42.686;23.244;2023-03-16T02:11:39;93545.88;;;5.80;67.98
10732;BME280;5417;42.686;23.244;2023-03-16T02:14:08;93548.31;;;5.70;68.55
10732;BME280;5417;42.686;23.244;2023-03-16T02:16:36;93553.47;;;5.59;69.23
10732;BME280;5417;42.686;23.244;2023-03-16T02:19:08;93548.63;;;5.32;70.43
10732;BME280;5417;42.686;23.244;2023-03-16T02:21:46;93557.06;;;5.23;71.05
10732;BME280;5417;42.686;23.244;2023-03-16T02:24:19;93559.94;;;5.19;71.63
10732;BME280;5417;42.686;23.244;2023-03-16T02:26:50;93555.25;;;5.13;71.78
10732;BME280;5417;42.686;23.244;2023-03-16T02:29:25;93563.47;;;5.18;71.49
10732;BME280;5417;42.686;23.244;2023-03-16T02:31:57;93566.66;;;5.21;72.50
10732;BME280;5417;42.686;23.244;2023-03-16T02:34:27;93569.59;;;5.28;72.33
10732;BME280;5417;42.686;23.244;2023-03-16T02:36:55;93561.88;;;5.39;71.97
10732;BME280;5417;42.686;23.244;2023-03-16T02:39:22;93575.16;;;5.46;72.26
10732;BME280;5417;42.686;23.244;2023-03-16T02:41:49;93579.13;;;5.38;71.94
10732;BME280;5417;42.686;23.244;2023-03-16T02:44:19;93573.25;;;5.01;72.63
10732;BME280;5417;42.686;23.244;2023-03-16T02:46:52;93570.44;;;4.93;74.11
10732;BME280;5417;42.686;23.244;2023-03-16T02:49:24;93582.31;;;5.07;73.75
10732;BME280;5417;42.686;23.244;2023-03-16T02:51:53;93564.00;;;4.99;72.95
10732;BME280;5417;42.686;23.244;2023-03-16T02:54:21;93575.72;;;5.03;72.73
10732;BME280;5417;42.686;23.244;2023-03-16T02:56:48;93583.00;;;5.09;73.01
10732;BME280;5417;42.686;23.244;2023-03-16T02:59:15;93577.38;;;5.04;72.37
10732;BME280;5417;42.686;23.244;2023-03-16T03:01:42;93569.94;;;4.88;72.18
10732;BME280;5417;42.686;23.244;2023-03-16T03:04:09;93580.97;;;4.90;73.00
10732;BME280;5417;42.686;23.244;2023-03-16T03:06:38;93585.16;;;4.80;73.09
10732;BME280;5417;42.686;23.244;2023-03-16T03:09:06;93578.94;;;4.83;72.96
10732;BME280;5417;42.686;23.244;2023-03-16T03:11:35;93592.72;;;4.70;73.16
10732;BME280;5417;42.686;23.244;2023-03-16T03:14:03;93590.78;;;4.85;73.50
10732;BME280;5417;42.686;23.244;2023-03-16T03:16:30;93590.34;;;4.91;73.74
10732;BME280;5417;42.686;23.244;2023-03-16T03:18:57;93588.38;;;4.95;73.54
10732;BME280;5417;42.686;23.244;2023-03-16T03:21:24;93606.34;;;5.07;73.21
10732;BME280;5417;42.686;23.244;2023-03-16T03:23:52;93615.50;;;5.12;72.70
10732;BME280;5417;42.686;23.244;2023-03-16T03:26:20;93618.75;;;5.26;71.74
10732;BME280;5417;42.686;23.244;2023-03-16T03:28:46;93616.50;;;5.22;71.00
10732;BME280;5417;42.686;23.244;2023-03-16T03:31:14;93622.59;;;5.21;71.21
10732;BME280;5417;42.686;23.244;2023-03-16T03:33:41;93622.59;;;5.21;71.49
10732;BME280;5417;42.686;23.244;2023-03-16T03:36:09;93612.09;;;5.11;70.06
10732;BME280;5417;42.686;23.244;2023-03-16T03:38:36;93620.44;;;5.15;70.21
10732;BME280;5417;42.686;23.244;2023-03-16T03:41:05;93617.75;;;5.16;70.09
10732;BME280;5417;42.686;23.244;2023-03-16T03:43:33;93621.97;;;5.17;69.65
10732;BME280;5417;42.686;23.244;2023-03-16T03:46:00;93629.81;;;5.16;70.20
10732;BME280;5417;42.686;23.244;2023-03-16T03:48:28;93628.56;;;5.21;70.66
10732;BME280;5417;42.686;23.244;2023-03-16T03:50:55;93633.16;;;5.29;70.01
10732;BME280;5417;42.686;23.244;2023-03-16T03:53:22;93629.28;;;5.23;69.35
10732;BME280;5417;42.686;23.244;2023-03-16T03:55:49;93626.84;;;5.09;69.73
10732;BME280;5417;42.686;23.244;2023-03-16T03:58:17;93636.34;;;5.08;70.21
10732;BME280;5417;42.686;23.244;2023-03-16T04:00:44;93645.81;;;4.97;69.76
10732;BME280;5417;42.686;23.244;2023-03-16T04:03:11;93648.38;;;4.97;70.51
10732;BME280;5417;42.686;23.244;2023-03-16T04:05:38;93656.66;;;4.89;70.12
10732;BME280;5417;42.686;23.244;2023-03-16T04:08:05;93639.78;;;4.85;70.72
10732;BME280;5417;42.686;23.244;2023-03-16T04:10:32;93651.19;;;4.94;70.15
10732;BME280;5417;42.686;23.244;2023-03-16T04:12:59;93657.09;;;4.83;70.38
10732;BME280;5417;42.686;23.244;2023-03-16T04:15:27;93653.81;;;4.81;71.62
10732;BME280;5417;42.686;23.244;2023-03-16T04:17:54;93650.69;;;4.89;72.31
10732;BME280;5417;42.686;23.244;2023-03-16T04:20:21;93648.81;;;4.91;71.71
10732;BME280;5417;42.686;23.244;2023-03-16T04:22:48;93646.41;;;5.00;71.23
10732;BME280;5417;42.686;23.244;2023-03-16T04:25:23;93654.13;;;5.00;70.35
10732;BME280;5417;42.686;23.244;2023-03-16T04:27:50;93656.50;;;5.03;69.65
10732;BME280;5417;42.686;23.244;2023-03-16T04:30:17;93658.16;;;5.04;69.21
10732;BME280;5417;42.686;23.244;2023-03-16T04:32:46;93668.94;;;5.10;69.96
10732;BME280;5417;42.686;23.244;2023-03-16T04:35:13;93669.22;;;5.18;68.96
10732;BME280;5417;42.686;23.244;2023-03-16T04:37:41;93673.88;;;5.13;69.19
10732;BME280;5417;42.686;23.244;2023-03-16T04:40:09;93662.53;;;4.91;68.63
10732;BME280;5417;42.686;23.244;2023-03-16T04:42:41;93676.97;;;4.94;69.67
10732;BME280;5417;42.686;23.244;2023-03-16T04:45:09;93686.94;;;4.98;69.10
10732;BME280;5417;42.686;23.244;2023-03-16T04:47:36;93689.31;;;5.01;69.50
10732;BME280;5417;42.686;23.244;2023-03-16T04:50:05;93687.78;;;4.99;70.11
10732;BME280;5417;42.686;23.244;2023-03-16T04:52:33;93695.50;;;4.99;69.31
10732;BME280;5417;42.686;23.244;2023-03-16T04:54:59;93693.69;;;4.88;70.46
10732;BME280;5417;42.686;23.244;2023-03-16T04:57:26;93691.06;;;5.01;69.12
10732;BME280;5417;42.686;23.244;2023-03-16T04:59:54;93697.16;;;5.00;69.55
10732;BME280;5417;42.686;23.244;2023-03-16T05:02:21;93699.56;;;4.90;69.30
10732;BME280;5417;42.686;23.244;2023-03-16T05:04:48;93705.16;;;4.84;69.41
10732;BME280;5417;42.686;23.244;2023-03-16T05:07:17;93705.59;;;4.78;70.03
10732;BME280;5417;42.686;23.244;2023-03-16T05:09:44;93706.59;;;4.88;70.89
10732;BME280;5417;42.686;23.244;2023-03-16T05:12:11;93712.34;;;4.92;69.90
10732;BME280;5417;42.686;23.244;2023-03-16T05:14:38;93713.06;;;4.94;69.22
10732;BME280;5417;42.686;23.244;2023-03-16T05:17:05;93718.16;;;5.06;69.90
10732;BME280;5417;42.686;23.244;2023-03-16T05:19:32;93713.78;;;4.96;69.33
10732;BME280;5417;42.686;23.244;2023-03-16T05:21:59;93705.81;;;4.75;69.38
10732;BME280;5417;42.686;23.244;2023-03-16T05:24:27;93726.72;;;4.83;69.32
10732;BME280;5417;42.686;23.244;2023-03-16T05:26:54;93717.66;;;4.78;68.98
10732;BME280;5417;42.686;23.244;2023-03-16T05:29:22;93716.34;;;4.59;69.46
10732;BME280;5417;42.686;23.244;2023-03-16T05:31:51;93726.03;;;4.56;70.46
10732;BME280;5417;42.686;23.244;2023-03-16T05:34:18;93743.03;;;4.58;69.67
10732;BME280;5417;42.686;23.244;2023-03-16T05:36:45;93742.53;;;4.53;69.38
10732;BME280;5417;42.686;23.244;2023-03-16T05:39:12;93741.69;;;4.53;70.58
10732;BME280;5417;42.686;23.244;2023-03-16T05:41:41;93749.94;;;4.58;70.57
10732;BME280;5417;42.686;23.244;2023-03-16T05:44:08;93747.88;;;4.63;70.77
10732;BME280;5417;42.686;23.244;2023-03-16T05:46:35;93744.06;;;4.68;70.79
10732;BME280;5417;42.686;23.244;2023-03-16T05:49:02;93748.91;;;4.60;69.99
10732;BME280;5417;42.686;23.244;2023-03-16T05:51:31;93752.41;;;4.59;70.90
10732;BME280;5417;42.686;23.244;2023-03-16T05:53:58;93761.81;;;4.73;70.78
10732;BME280;5417;42.686;23.244;2023-03-16T05:56:26;93760.97;;;4.72;70.46
10732;BME280;5417;42.686;23.244;2023-03-16T05:58:55;93758.75;;;4.92;69.49
10732;BME280;5417;42.686;23.244;2023-03-16T06:01:23;93770.47;;;4.72;69.28
10732;BME280;5417;42.686;23.244;2023-03-16T06:03:50;93764.75;;;4.67;70.02
10732;BME280;5417;42.686;23.244;2023-03-16T06:06:18;93767.84;;;4.85;69.70
10732;BME280;5417;42.686;23.244;2023-03-16T06:08:45;93761.47;;;4.78;70.98
10732;BME280;5417;42.686;23.244;2023-03-16T06:11:13;93772.88;;;4.99;70.57
10732;BME280;5417;42.686;23.244;2023-03-16T06:13:40;93780.41;;;5.02;69.91
10732;BME280;5417;42.686;23.244;2023-03-16T06:16:08;93780.78;;;5.08;69.48
10732;BME280;5417;42.686;23.244;2023-03-16T06:18:36;93784.19;;;5.22;68.40
10732;BME280;5417;42.686;23.244;2023-03-16T06:21:04;93782.59;;;5.32;67.38
10732;BME280;5417;42.686;23.244;2023-03-16T06:23:31;93786.22;;;5.17;69.14
10732;BME280;5417;42.686;23.244;2023-03-16T06:26:00;93777.44;;;5.19;68.48
10732;BME280;5417;42.686;23.244;2023-03-16T06:28:27;93793.75;;;5.20;67.74
10732;BME280;5417;42.686;23.244;2023-03-16T06:30:54;93798.00;;;5.21;66.86
10732;BME280;5417;42.686;23.244;2023-03-16T06:33:23;93803.88;;;5.10;68.70
10732;BME280;5417;42.686;23.244;2023-03-16T06:35:51;93807.56;;;5.19;67.86
10732;BME280;5417;42.686;23.244;2023-03-16T06:38:18;93809.88;;;5.23;67.70
10732;BME280;5417;42.686;23.244;2023-03-16T06:40:50;93811.41;;;5.26;67.85
10732;BME280;5417;42.686;23.244;2023-03-16T06:43:17;93812.75;;;5.19;67.24
10732;BME280;5417;42.686;23.244;2023-03-16T06:45:44;93822.88;;;5.09;66.44
10732;BME280;5417;42.686;23.244;2023-03-16T06:48:11;93822.78;;;5.11;66.69
10732;BME280;5417;42.686;23.244;2023-03-16T06:50:39;93819.78;;;5.04;67.37
10732;BME280;5417;42.686;23.244;2023-03-16T06:53:06;93827.53;;;5.04;67.91
10732;BME280;5417;42.686;23.244;2023-03-16T06:55:33;93837.13;;;5.02;68.66
10732;BME280;5417;42.686;23.244;2023-03-16T06:58:00;93831.53;;;5.08;69.33
10732;BME280;5417;42.686;23.244;2023-03-16T07:00:27;93829.50;;;5.00;70.13
10732;BME280;5417;42.686;23.244;2023-03-16T07:02:55;93838.97;;;5.13;70.07
10732;BME280;5417;42.686;23.244;2023-03-16T07:05:22;93841.44;;;5.27;68.65
10732;BME280;5417;42.686;23.244;2023-03-16T07:07:54;93855.06;;;5.29;67.07
10732;BME280;5417;42.686;23.244;2023-03-16T07:10:21;93843.63;;;5.20;67.95
10732;BME280;5417;42.686;23.244;2023-03-16T07:12:50;93853.19;;;5.18;68.33
10732;BME280;5417;42.686;23.244;2023-03-16T07:15:17;93849.91;;;5.16;69.00
10732;BME280;5417;42.686;23.244;2023-03-16T07:17:44;93866.50;;;5.12;69.11
10732;BME280;5417;42.686;23.244;2023-03-16T07:20:11;93852.78;;;5.24;68.40
10732;BME280;5417;42.686;23.244;2023-03-16T07:22:38;93867.34;;;5.25;69.66
10732;BME280;5417;42.686;23.244;2023-03-16T07:25:10;93866.09;;;5.31;69.85
10732;BME280;5417;42.686;23.244;2023-03-16T07:27:38;93860.34;;;5.51;67.90
10732;BME280;5417;42.686;23.244;2023-03-16T07:30:09;93867.97;;;5.53;68.95
10732;BME280;5417;42.686;23.244;2023-03-16T07:32:38;93852.88;;;5.59;68.20
10732;BME280;5417;42.686;23.244;2023-03-16T07:35:06;93870.63;;;5.64;67.43
10732;BME280;5417;42.686;23.244;2023-03-16T07:37:33;93870.13;;;5.59;68.16
10732;BME280;5417;42.686;23.244;2023-03-16T07:40:01;93860.09;;;5.67;68.00
10732;BME280;5417;42.686;23.244;2023-03-16T07:42:31;93873.09;;;5.78;66.76
10732;BME280;5417;42.686;23.244;2023-03-16T07:45:00;93879.41;;;5.61;66.12
10732;BME280;5417;42.686;23.244;2023-03-16T07:47:26;93867.59;;;5.46;66.11
10732;BME280;5417;42.686;23.244;2023-03-16T07:49:55;93872.78;;;5.33;66.45
10732;BME280;5417;42.686;23.244;2023-03-16T07:52:22;93887.44;;;5.33;67.58
10732;BME280;5417;42.686;23.244;2023-03-16T07:54:49;93886.53;;;5.21;67.75
10732;BME280;5417;42.686;23.244;2023-03-16T07:57:16;93897.25;;;5.15;68.82
10732;BME280;5417;42.686;23.244;2023-03-16T07:59:45;93885.38;;;5.13;67.78
10732;BME280;5417;42.686;23.244;2023-03-16T08:02:13;93890.34;;;5.03;68.66
10732;BME280;5417;42.686;23.244;2023-03-16T08:04:42;93895.31;;;4.93;68.30
10732;BME280;5417;42.686;23.244;2023-03-16T08:07:10;93894.28;;;4.96;68.91
10732;BME280;5417;42.686;23.244;2023-03-16T08:09:38;93896.13;;;5.06;68.27
10732;BME280;5417;42.686;23.244;2023-03-16T08:12:07;93878.91;;;4.94;67.95
10732;BME280;5417;42.686;23.244;2023-03-16T08:14:34;93891.59;;;5.10;68.60
10732;BME280;5417;42.686;23.244;2023-03-16T08:17:14;93888.38;;;5.19;68.71
10732;BME280;5417;42.686;23.244;2023-03-16T08:20:04;93896.53;;;5.26;68.60
10732;BME280;5417;42.686;23.244;2023-03-16T08:22:51;93902.53;;;5.14;67.38
10732;BME280;5417;42.686;23.244;2023-03-16T08:25:19;93913.97;;;5.10;68.34
10732;BME280;5417;42.686;23.244;2023-03-16T08:27:46;93910.78;;;5.06;68.99
10732;BME280;5417;42.686;23.244;2023-03-16T08:30:15;93903.13;;;5.30;69.09
10732;BME280;5417;42.686;23.244;2023-03-16T08:32:44;93901.56;;;5.40;67.87
10732;BME280;5417;42.686;23.244;2023-03-16T08:35:13;93920.84;;;5.47;67.75
10732;BME280;5417;42.686;23.244;2023-03-16T08:37:41;93918.81;;;5.39;67.01
10732;BME280;5417;42.686;23.244;2023-03-16T08:40:10;93918.88;;;5.51;67.71
10732;BME280;5417;42.686;23.244;2023-03-16T08:42:38;93915.69;;;5.47;67.33
10732;BME280;5417;42.686;23.244;2023-03-16T08:45:06;93913.91;;;5.60;68.05
10732;BME280;5417;42.686;23.244;2023-03-16T08:47:35;93911.31;;;5.60;65.96
10732;BME280;5417;42.686;23.244;2023-03-16T08:50:06;93917.91;;;5.64;65.20
10732;BME280;5417;42.686;23.244;2023-03-16T08:52:34;93911.44;;;5.59;67.22
10732;BME280;5417;42.686;23.244;2023-03-16T08:55:02;93928.13;;;5.79;66.47
10732;BME280;5417;42.686;23.244;2023-03-16T08:57:30;93921.81;;;5.83;66.45
10732;BME280;5417;42.686;23.244;2023-03-16T08:59:57;93924.72;;;5.65;64.70
10732;BME280;5417;42.686;23.244;2023-03-16T09:02:25;93926.81;;;5.60;65.60
10732;BME280;5417;42.686;23.244;2023-03-16T09:04:52;93922.03;;;5.67;66.15
10732;BME280;5417;42.686;23.244;2023-03-16T09:07:20;93921.22;;;5.66;67.66
10732;BME280;5417;42.686;23.244;2023-03-16T09:09:47;93922.97;;;5.79;66.80
10732;BME280;5417;42.686;23.244;2023-03-16T09:12:15;93929.66;;;5.81;66.44
10732;BME280;5417;42.686;23.244;2023-03-16T09:14:42;93924.81;;;5.89;64.75
10732;BME280;5417;42.686;23.244;2023-03-16T09:17:10;93924.28;;;5.97;64.65
10732;BME280;5417;42.686;23.244;2023-03-16T09:19:37;93930.25;;;5.97;65.26
10732;BME280;5417;42.686;23.244;2023-03-16T09:22:05;93923.97;;;5.89;64.92
10732;BME280;5417;42.686;23.244;2023-03-16T09:24:33;93940.09;;;5.92;65.00
10732;BME280;5417;42.686;23.244;2023-03-16T09:27:00;93935.75;;;5.93;65.59
10732;BME280;5417;42.686;23.244;2023-03-16T09:29:27;93936.09;;;5.76;64.07
10732;BME280;5417;42.686;23.244;2023-03-16T09:31:54;93931.88;;;5.75;64.95
10732;BME280;5417;42.686;23.244;2023-03-16T09:34:21;93936.38;;;5.71;65.25
10732;BME280;5417;42.686;23.244;2023-03-16T09:36:48;93935.88;;;5.79;64.83
10732;BME280;5417;42.686;23.244;2023-03-16T09:39:15;93937.41;;;5.81;65.69
10732;BME280;5417;42.686;23.244;2023-03-16T09:41:47;93941.06;;;5.66;64.94
10732;BME280;5417;42.686;23.244;2023-03-16T09:44:29;93939.13;;;5.57;66.41
10732;BME280;5417;42.686;23.244;2023-03-16T09:46:59;93952.22;;;5.54;66.50
10732;BME280;5417;42.686;23.244;2023-03-16T09:49:32;93946.22;;;5.66;65.51
10732;BME280;5417;42.686;23.244;2023-03-16T09:52:07;93949.13;;;5.74;66.37
10732;BME280;5417;42.686;23.244;2023-03-16T09:54:44;93951.06;;;5.83;65.93
10732;BME280;5417;42.686;23.244;2023-03-16T09:57:24;93946.81;;;5.95;64.93
10732;BME280;5417;42.686;23.244;2023-03-16T09:59:52;93944.44;;;5.92;65.43
10732;BME280;5417;42.686;23.244;2023-03-16T10:02:37;93954.56;;;5.95;65.08
10732;BME280;5417;42.686;23.244;2023-03-16T10:05:08;93950.31;;;5.94;66.53
10732;BME280;5417;42.686;23.244;2023-03-16T10:07:44;93946.59;;;5.98;66.29
10732;BME280;5417;42.686;23.244;2023-03-16T10:10:23;93945.72;;;6.10;66.37
10732;BME280;5417;42.686;23.244;2023-03-16T10:12:56;93948.91;;;5.77;66.26
10732;BME280;5417;42.686;23.244;2023-03-16T10:15:27;93945.50;;;5.77;65.86
10732;BME280;5417;42.686;23.244;2023-03-16T10:17:58;93947.53;;;5.71;64.86
10732;BME280;5417;42.686;23.244;2023-03-16T10:20:27;93950.13;;;5.71;66.03
10732;BME280;5417;42.686;23.244;2023-03-16T10:22:57;93955.50;;;5.81;66.40
10732;BME280;5417;42.686;23.244;2023-03-16T10:25:31;93959.81;;;5.93;67.26
10732;BME280;5417;42.686;23.244;2023-03-16T10:28:17;93947.91;;;6.04;65.45
10732;BME280;5417;42.686;23.244;2023-03-16T10:30:46;93953.34;;;6.12;65.63
10732;BME280;5417;42.686;23.244;2023-03-16T10:33:19;93940.75;;;6.07;64.89
10732;BME280;5417;42.686;23.244;2023-03-16T10:35:54;93945.81;;;6.09;64.57
10732;BME280;5417;42.686;23.244;2023-03-16T10:38:30;93947.13;;;6.14;63.94
10732;BME280;5417;42.686;23.244;2023-03-16T10:40:58;93949.44;;;6.06;62.16
10732;BME280;5417;42.686;23.244;2023-03-16T10:43:27;93936.88;;;6.01;62.35
10732;BME280;5417;42.686;23.244;2023-03-16T10:45:57;93932.19;;;6.07;63.74
10732;BME280;5417;42.686;23.244;2023-03-16T10:48:26;93941.97;;;6.14;62.87
10732;BME280;5417;42.686;23.244;2023-03-16T10:50:55;93932.13;;;6.19;62.28
10732;BME280;5417;42.686;23.244;2023-03-16T10:53:27;93940.53;;;6.10;61.57
10732;BME280;5417;42.686;23.244;2023-03-16T10:55:59;93941.16;;;6.14;62.17
10732;BME280;5417;42.686;23.244;2023-03-16T10:58:31;93945.97;;;6.18;62.43
10732;BME280;5417;42.686;23.244;2023-03-16T11:00:58;93948.97;;;6.25;63.32
10732;BME280;5417;42.686;23.244;2023-03-16T11:03:27;93938.91;;;6.33;61.07
10732;BME280;5417;42.686;23.244;2023-03-16T11:05:57;93947.06;;;6.40;60.63
10732;BME280;5417;42.686;23.244;2023-03-16T11:08:26;93948.66;;;6.29;60.90
10732;BME280;5417;42.686;23.244;2023-03-16T11:10:55;93952.66;;;6.33;61.37
10732;BME280;5417;42.686;23.244;2023-03-16T11:13:26;93942.66;;;6.29;62.85
10732;BME280;5417;42.686;23.244;2023-03-16T11:16:01;93945.72;;;6.34;63.36
10732;BME280;5417;42.686;23.244;2023-03-16T11:18:31;93945.50;;;6.37;61.95
10732;BME280;5417;42.686;23.244;2023-03-16T11:21:05;93948.91;;;6.38;60.86
10732;BME280;5417;42.686;23.244;2023-03-16T11:23:36;93947.75;;;6.42;61.26
10732;BME280;5417;42.686;23.244;2023-03-16T11:26:11;93939.03;;;6.31;61.79
10732;BME280;5417;42.686;23.244;2023-03-16T11:28:46;93948.81;;;6.39;61.52
10732;BME280;5417;42.686;23.244;2023-03-16T11:31:27;93929.63;;;6.30;61.81
10732;BME280;5417;42.686;23.244;2023-03-16T11:33:59;93950.22;;;6.19;61.40
10732;BME280;5417;42.686;23.244;2023-03-16T11:36:37;93950.06;;;6.10;61.86
10732;BME280;5417;42.686;23.244;2023-03-16T11:39:13;93951.22;;;6.06;62.30
10732;BME280;5417;42.686;23.244;2023-03-16T11:41:50;93943.47;;;6.06;61.92
10732;BME280;5417;42.686;23.244;2023-03-16T11:44:27;93946.31;;;5.90;61.80
10732;BME280;5417;42.686;23.244;2023-03-16T11:47:04;93942.16;;;5.87;62.28
10732;BME280;5417;42.686;23.244;2023-03-16T11:49:44;93946.00;;;5.82;62.53
10732;BME280;5417;42.686;23.244;2023-03-16T11:52:21;93958.47;;;5.88;63.27
10732;BME280;5417;42.686;23.244;2023-03-16T11:54:57;93956.31;;;5.94;63.88
10732;BME280;5417;42.686;23.244;2023-03-16T11:57:36;93961.75;;;6.03;62.19
10732;BME280;5417;42.686;23.244;2023-03-16T12:00:25;93960.00;;;6.03;62.39
10732;BME280;5417;42.686;23.244;2023-03-16T12:03:25;93967.63;;;6.05;62.70
10732;BME280;5417;42.686;23.244;2023-03-16T12:06:01;93958.34;;;6.02;61.62
10732;BME280;5417;42.686;23.244;2023-03-16T12:08:56;93965.94;;;5.92;61.96
10732;BME280;5417;42.686;23.244;2023-03-16T12:11:29;93971.81;;;5.94;62.91
10732;BME280;5417;42.686;23.244;2023-03-16T12:14:06;93969.34;;;5.93;62.35
10732;BME280;5417;42.686;23.244;2023-03-16T12:16:43;93968.41;;;5.94;62.18
10732;BME280;5417;42.686;23.244;2023-03-16T12:19:15;93964.56;;;5.99;62.40
10732;BME280;5417;42.686;23.244;2023-03-16T12:21:45;93964.78;;;5.96;62.37
10732;BME280;5417;42.686;23.244;2023-03-16T12:24:21;93971.31;;;5.89;62.30
10732;BME280;5417;42.686;23.244;2023-03-16T12:26:52;93978.13;;;5.90;62.41
10732;BME280;5417;42.686;23.244;2023-03-16T12:29:25;93985.88;;;5.90;62.66
10732;BME280;5417;42.686;23.244;2023-03-16T12:32:00;93983.91;;;5.94;62.12
10732;BME280;5417;42.686;23.244;2023-03-16T12:34:35;93991.22;;;5.87;62.96
10732;BME280;5417;42.686;23.244;2023-03-16T12:37:17;93978.31;;;5.87;63.28
10732;BME280;5417;42.686;23.244;2023-03-16T12:39:58;93995.44;;;5.88;62.89
10732;BME280;5417;42.686;23.244;2023-03-16T12:42:43;93994.34;;;5.92;63.13
10732;BME280;5417;42.686;23.244;2023-03-16T12:45:15;94006.72;;;5.87;63.31
10732;BME280;5417;42.686;23.244;2023-03-16T12:47:51;94005.72;;;5.90;63.17
10732;BME280;5417;42.686;23.244;2023-03-16T12:50:23;94012.41;;;5.80;63.98
10732;BME280;5417;42.686;23.244;2023-03-16T12:52:52;94006.53;;;5.65;64.61
10732;BME280;5417;42.686;23.244;2023-03-16T12:55:23;94019.31;;;5.66;65.75
10732;BME280;5417;42.686;23.244;2023-03-16T12:57:58;94018.09;;;5.59;66.18
10732;BME280;5417;42.686;23.244;2023-03-16T13:00:32;94018.41;;;5.55;66.43
10732;BME280;5417;42.686;23.244;2023-03-16T13:03:13;94016.22;;;5.61;67.07
10732;BME280;5417;42.686;23.244;2023-03-16T13:05:48;94016.63;;;5.68;67.65
10732;BME280;5417;42.686;23.244;2023-03-16T13:08:18;94022.97;;;5.77;66.89
10732;BME280;5417;42.686;23.244;2023-03-16T13:10:59;94012.63;;;5.77;66.92
10732;BME280;5417;42.686;23.244;2023-03-16T13:13:26;94018.94;;;5.73;66.99
10732;BME280;5417;42.686;23.244;2023-03-16T13:16:02;94020.38;;;5.77;67.19
10732;BME280;5417;42.686;23.244;2023-03-16T13:18:38;94030.16;;;5.84;67.03
10732;BME280;5417;42.686;23.244;2023-03-16T13:21:16;94026.16;;;5.93;66.10
10732;BME280;5417;42.686;23.244;2023-03-16T13:23:56;94026.34;;;6.03;65.41